createdAt,value
2019-03-08T00:00:15.081Z,11.60
2019-03-08T00:05:16.725Z,14.70
2019-03-08T00:10:18.359Z,16.77
2019-03-08T00:15:19.961Z,15.63
2019-03-08T00:20:21.541Z,12.50
2019-03-08T00:25:23.717Z,17.20
2019-03-08T00:30:25.401Z,14.57
2019-03-08T00:35:27.079Z,15.23
2019-03-08T00:40:28.705Z,14.63
2019-03-08T00:45:30.321Z,13.63
2019-03-08T00:50:32.305Z,17.80
2019-03-08T00:55:33.903Z,10.27
2019-03-08T01:00:35.639Z,9.77
2019-03-08T01:05:37.267Z,14.27
2019-03-08T01:10:38.837Z,11.83
2019-03-08T01:15:40.462Z,16.07
2019-03-08T01:20:42.073Z,16.03
2019-03-08T01:25:43.747Z,11.60
2019-03-08T01:30:45.337Z,14.13
2019-03-08T01:35:47.027Z,10.37
2019-03-08T01:40:48.594Z,10.97
2019-03-08T01:45:50.186Z,13.23
2019-03-08T01:50:52.258Z,15.07
2019-03-08T01:55:53.842Z,18.50
2019-03-08T02:00:55.415Z,21.83
2019-03-08T02:05:57.524Z,27.97
2019-03-08T02:10:59.592Z,15.60
2019-03-08T02:16:01.155Z,17.53
2019-03-08T02:21:06.748Z,20.10
2019-03-08T02:26:06.309Z,19.37
2019-03-08T02:31:07.948Z,21.13
2019-03-08T02:36:09.756Z,28.23
2019-03-08T02:41:11.366Z,23.87
2019-03-08T02:46:13.094Z,27.43
2019-03-08T02:51:14.967Z,28.50
2019-03-08T02:56:17.145Z,22.07
2019-03-08T03:01:18.960Z,33.17
2019-03-08T03:06:20.518Z,32.20
2019-03-08T03:11:22.093Z,27.13
2019-03-08T03:16:24.059Z,34.70
2019-03-08T03:21:25.732Z,28.93
2019-03-08T03:26:27.388Z,31.87
2019-03-08T03:31:29.405Z,35.53
2019-03-08T03:36:31.073Z,33.73
2019-03-08T03:41:32.678Z,36.30
2019-03-08T03:46:34.278Z,35.23
2019-03-08T03:51:35.871Z,34.53
2019-03-08T03:56:37.448Z,34.47
2019-03-08T04:01:39.524Z,30.87
2019-03-08T04:06:41.167Z,44.20
2019-03-08T04:11:43.266Z,34.87
2019-03-08T04:16:44.834Z,40.07
2019-03-08T04:21:46.422Z,34.73
2019-03-08T04:26:48.459Z,33.00
2019-03-08T04:31:50.010Z,31.33
2019-03-08T04:36:51.704Z,36.37
2019-03-08T04:41:53.238Z,43.77
2019-03-08T04:46:54.854Z,34.80
2019-03-08T04:51:56.454Z,30.87
2019-03-08T04:56:58.372Z,31.73
2019-03-08T05:02:00.553Z,32.37
2019-03-08T05:07:02.178Z,35.73
2019-03-08T05:12:03.746Z,40.53
2019-03-08T05:17:05.502Z,42.37
2019-03-08T05:22:07.257Z,36.50
2019-03-08T05:27:08.879Z,36.53
2019-03-08T05:32:10.531Z,24.93
2019-03-08T05:37:12.266Z,34.90
2019-03-08T05:42:13.853Z,35.07
2019-03-08T05:47:15.969Z,34.83
2019-03-08T05:52:17.592Z,37.87
2019-03-08T05:57:19.584Z,32.67
2019-03-08T06:02:21.255Z,42.53
2019-03-08T06:07:22.910Z,36.60
2019-03-08T06:12:24.514Z,44.33
2019-03-08T06:17:26.276Z,35.73
2019-03-08T06:22:27.905Z,31.40
2019-03-08T06:27:29.520Z,30.70
2019-03-08T06:32:31.173Z,30.60
2019-03-08T06:37:32.842Z,31.40
2019-03-08T06:42:34.805Z,33.93
2019-03-08T06:47:36.360Z,34.73
2019-03-08T06:52:38.601Z,27.63
2019-03-08T06:57:40.154Z,25.50
2019-03-08T07:02:41.830Z,27.70
2019-03-08T07:07:43.432Z,35.50
2019-03-08T07:12:45.058Z,20.97
2019-03-08T07:17:47.095Z,25.20
2019-03-08T07:22:51.678Z,30.33
2019-03-08T07:27:53.302Z,18.33
2019-03-08T07:32:54.867Z,34.17
2019-03-08T07:37:56.542Z,28.87
2019-03-08T07:42:58.444Z,30.50
2019-03-08T07:48:00.526Z,41.10
2019-03-08T07:53:02.529Z,34.23
2019-03-08T07:58:04.138Z,42.93
2019-03-08T08:03:05.716Z,27.93
2019-03-08T08:08:07.617Z,27.60
2019-03-08T08:13:09.558Z,36.50
2019-03-08T08:18:11.277Z,31.23
2019-03-08T08:23:12.881Z,28.43
2019-03-08T08:28:14.669Z,32.97
2019-03-08T08:33:16.779Z,32.90
2019-03-08T08:38:18.669Z,25.40
2019-03-08T08:43:20.364Z,27.27
2019-03-08T08:48:21.912Z,22.47
2019-03-08T08:53:23.460Z,20.07
2019-03-08T08:58:25.114Z,22.60
2019-03-08T09:03:26.687Z,29.57
2019-03-08T09:08:28.346Z,27.07
2019-03-08T09:13:30.261Z,18.93
2019-03-08T09:18:31.985Z,19.10
2019-03-08T09:23:33.715Z,22.47
2019-03-08T09:28:35.498Z,14.73
2019-03-08T09:33:37.078Z,24.87
2019-03-08T09:38:38.729Z,26.93
2019-03-08T09:43:40.342Z,21.67
2019-03-08T09:48:48.445Z,27.97
2019-03-08T09:53:45.665Z,22.27
2019-03-08T09:58:47.363Z,24.70
2019-03-08T10:03:48.965Z,24.63
2019-03-08T10:08:50.627Z,23.30
2019-03-08T10:13:52.312Z,20.93
2019-03-08T10:18:54.250Z,19.27
2019-03-08T10:23:55.873Z,20.03
2019-03-08T10:28:57.952Z,21.83
2019-03-08T10:34:00.510Z,23.67
2019-03-08T10:39:02.296Z,22.60
2019-03-08T10:44:08.911Z,20.10
2019-03-08T10:49:07.418Z,24.90
2019-03-08T10:54:09.217Z,19.67
2019-03-08T10:59:10.833Z,23.80
2019-03-08T11:04:14.814Z,18.50
2019-03-08T11:09:18.071Z,24.73
2019-03-08T11:14:20.462Z,19.17
2019-03-08T11:19:23.036Z,22.07
2019-03-08T11:24:24.848Z,17.20
2019-03-08T11:29:26.827Z,16.43
2019-03-08T11:34:28.447Z,11.90
2019-03-08T11:39:30.279Z,12.63
2019-03-08T11:44:32.824Z,14.63
2019-03-08T11:49:34.493Z,11.47
2019-03-08T11:54:40.860Z,8.77
2019-03-08T11:59:39.603Z,13.53
2019-03-08T12:04:41.289Z,12.67
2019-03-08T12:09:42.885Z,8.23
2019-03-08T12:14:45.031Z,11.93
2019-03-08T12:19:46.983Z,10.43
2019-03-08T12:24:49.012Z,15.60
2019-03-08T12:29:50.627Z,12.80
2019-03-08T12:34:54.463Z,17.50
2019-03-08T12:39:56.572Z,12.33
2019-03-08T12:44:58.301Z,13.97
2019-03-08T12:50:00.343Z,13.07
2019-03-08T12:55:02.054Z,6.87
2019-03-08T13:00:05.327Z,12.80
2019-03-08T13:05:07.330Z,10.17
2019-03-08T13:10:09.008Z,10.97
2019-03-08T13:15:12.329Z,8.13
2019-03-08T13:20:15.030Z,13.23
2019-03-08T13:25:16.817Z,6.30
2019-03-08T13:30:19.614Z,10.70
2019-03-08T13:35:21.435Z,9.43
2019-03-08T13:40:23.014Z,9.03
2019-03-08T13:45:24.634Z,10.13
2019-03-08T13:50:26.361Z,8.37
2019-03-08T13:55:28.486Z,9.97
2019-03-08T14:00:30.181Z,8.87
2019-03-08T14:05:31.992Z,9.57
2019-03-08T14:10:33.550Z,9.63
2019-03-08T14:15:35.172Z,10.50
2019-03-08T14:20:37.242Z,7.30
2019-03-08T14:25:38.840Z,6.40
2019-03-08T14:30:40.555Z,8.23
2019-03-08T14:35:42.152Z,7.00
2019-03-08T14:40:43.806Z,6.13
2019-03-08T14:45:46.098Z,6.97
2019-03-08T14:50:47.852Z,10.77
2019-03-08T14:55:49.840Z,11.23
2019-03-08T15:00:51.922Z,11.90
2019-03-08T15:05:54.888Z,12.00
2019-03-08T15:10:57.712Z,8.83
2019-03-08T15:16:02.173Z,9.53
2019-03-08T15:21:06.265Z,10.83
2019-03-08T15:26:08.381Z,11.03
2019-03-08T15:31:10.369Z,6.97
2019-03-08T15:36:12.214Z,11.00
2019-03-08T15:41:15.013Z,6.00
2019-03-08T15:46:18.663Z,7.23
2019-03-08T15:51:24.682Z,8.27
2019-03-08T15:56:25.472Z,4.07
2019-03-08T16:01:27.316Z,6.80
2019-03-08T16:06:29.423Z,10.23
2019-03-08T16:11:31.560Z,11.57
2019-03-08T16:16:33.329Z,5.33
2019-03-08T16:21:35.098Z,10.43
2019-03-08T16:26:37.950Z,9.17
2019-03-08T16:31:39.574Z,10.00
2019-03-08T16:36:41.646Z,15.67
2019-03-08T16:41:43.483Z,11.43
2019-03-08T16:46:46.161Z,12.50
2019-03-08T16:51:47.913Z,10.47
2019-03-08T16:56:49.811Z,14.90
2019-03-08T17:01:51.424Z,13.70
2019-03-08T17:06:53.448Z,15.90
2019-03-08T17:11:55.772Z,12.63
2019-03-08T17:16:57.850Z,18.47
2019-03-08T17:22:00.517Z,13.10
2019-03-08T17:27:03.613Z,15.27
2019-03-08T17:32:05.224Z,12.80
2019-03-08T17:37:07.066Z,13.97
2019-03-08T17:42:08.668Z,12.17
2019-03-08T17:47:10.272Z,14.73
2019-03-08T17:52:11.927Z,10.70
2019-03-08T17:57:14.019Z,14.80
2019-03-08T18:02:16.803Z,17.83
2019-03-08T18:07:18.556Z,17.80
2019-03-08T18:12:20.272Z,16.93
2019-03-08T18:17:21.887Z,14.53
2019-03-08T18:22:24.958Z,19.17
2019-03-08T18:27:26.530Z,13.77
2019-03-08T18:32:28.310Z,15.87
2019-03-08T18:37:30.352Z,17.37
2019-03-08T18:42:32.313Z,16.87
2019-03-08T18:47:34.006Z,11.80
2019-03-08T18:52:35.695Z,11.63
2019-03-08T18:57:37.789Z,14.40
2019-03-08T19:02:39.678Z,15.17
2019-03-08T19:07:41.371Z,11.53
2019-03-08T19:12:43.200Z,22.07
2019-03-08T19:17:45.176Z,14.90
2019-03-08T19:22:47.247Z,18.20
2019-03-08T19:27:48.970Z,16.63
2019-03-08T19:32:50.711Z,20.37
2019-03-08T19:37:52.722Z,18.60
2019-03-08T19:42:54.558Z,24.40
2019-03-08T19:47:56.982Z,16.07
2019-03-08T19:52:59.391Z,19.23
2019-03-08T19:58:01.188Z,15.87
2019-03-08T20:03:03.144Z,22.00
2019-03-08T20:08:04.791Z,13.93
2019-03-08T20:13:08.870Z,19.00
2019-03-08T20:18:10.901Z,14.97
2019-03-08T20:23:12.697Z,14.37
2019-03-08T20:28:14.463Z,12.07
2019-03-08T20:33:16.137Z,12.77
2019-03-08T20:38:17.904Z,8.60
2019-03-08T20:43:19.713Z,7.67
2019-03-08T20:48:21.678Z,9.10
2019-03-08T20:53:23.535Z,6.70
2019-03-08T20:58:25.318Z,5.10
2019-03-08T21:03:27.186Z,3.17
2019-03-08T21:08:29.046Z,3.97
2019-03-08T21:13:31.881Z,4.37
2019-03-08T21:18:33.980Z,4.60
2019-03-08T21:23:35.647Z,2.63
2019-03-08T21:28:38.534Z,6.93
2019-03-08T21:33:40.193Z,4.43
2019-03-08T21:38:41.846Z,5.63
2019-03-08T21:43:43.743Z,4.20
2019-03-08T21:48:46.441Z,7.30
2019-03-08T21:53:48.257Z,11.00
2019-03-08T21:58:50.990Z,8.37
2019-03-08T22:03:52.718Z,11.43
2019-03-08T22:08:54.349Z,13.03
2019-03-08T22:13:56.769Z,15.97
2019-03-08T22:18:58.454Z,15.63
2019-03-08T22:24:00.089Z,14.37
2019-03-08T22:29:01.995Z,14.90
2019-03-08T22:34:03.622Z,16.47
2019-03-08T22:39:05.832Z,12.63
2019-03-08T22:44:07.419Z,14.13
2019-03-08T22:49:09.430Z,18.67
2019-03-08T22:54:11.965Z,15.37
2019-03-08T22:59:13.561Z,19.27
2019-03-08T23:04:15.926Z,15.70
2019-03-08T23:09:17.608Z,18.57
2019-03-08T23:14:19.291Z,14.77
2019-03-08T23:19:21.005Z,12.40
2019-03-08T23:24:22.558Z,16.67
2019-03-08T23:29:24.269Z,15.73
2019-03-08T23:34:25.857Z,17.43
2019-03-08T23:39:28.141Z,13.23
2019-03-08T23:44:30.106Z,9.77
2019-03-08T23:49:32.099Z,10.67
2019-03-08T23:54:34.564Z,11.63
2019-03-08T23:59:36.162Z,7.67
